createdAt,value
2018-10-17T00:00:49.422Z,23.20
2018-10-17T00:05:52.967Z,23.07
2018-10-17T00:10:56.585Z,23.57
2018-10-17T00:16:00.114Z,25.90
2018-10-17T00:21:03.782Z,24.60
2018-10-17T00:26:07.334Z,25.17
2018-10-17T00:31:10.939Z,25.57
2018-10-17T00:36:14.534Z,26.93
2018-10-17T00:41:18.164Z,24.53
2018-10-17T00:46:21.727Z,25.17
2018-10-17T00:51:25.362Z,23.77
2018-10-17T00:56:28.929Z,28.03
2018-10-17T01:01:32.431Z,24.67
2018-10-17T01:06:36.434Z,31.40
2018-10-17T01:11:40.441Z,27.03
2018-10-17T01:16:44.065Z,28.63
2018-10-17T01:21:48.230Z,27.27
2018-10-17T01:26:51.833Z,30.43
2018-10-17T01:31:55.377Z,34.83
2018-10-17T01:36:58.978Z,30.40
2018-10-17T01:42:02.510Z,33.00
2018-10-17T01:47:06.421Z,33.37
2018-10-17T01:52:09.945Z,33.23
2018-10-17T01:57:13.632Z,30.87
2018-10-17T02:02:17.193Z,35.50
2018-10-17T02:07:20.798Z,30.03
2018-10-17T02:12:24.306Z,33.90
2018-10-17T02:17:27.838Z,31.73
2018-10-17T02:22:31.368Z,33.20
2018-10-17T02:27:35.036Z,36.10
2018-10-17T02:32:38.557Z,29.87
2018-10-17T02:37:42.338Z,31.80
2018-10-17T02:42:45.886Z,32.40
2018-10-17T02:47:49.460Z,27.90
2018-10-17T02:52:53.069Z,28.10
2018-10-17T02:57:56.698Z,26.43
2018-10-17T03:03:00.245Z,26.83
2018-10-17T03:08:03.847Z,30.57
2018-10-17T03:13:07.363Z,25.90
2018-10-17T03:18:10.923Z,26.43
2018-10-17T03:23:14.664Z,25.23
2018-10-17T03:28:18.213Z,23.07
2018-10-17T03:33:21.770Z,24.27
2018-10-17T03:38:25.532Z,25.57
2018-10-17T03:43:29.142Z,26.13
2018-10-17T03:48:32.725Z,22.37
2018-10-17T03:53:36.301Z,22.77
2018-10-17T03:58:39.805Z,26.33
2018-10-17T04:03:43.424Z,25.70
2018-10-17T04:08:46.982Z,30.00
2018-10-17T04:13:50.459Z,29.13
2018-10-17T04:18:54.022Z,26.67
2018-10-17T04:23:57.649Z,25.40
2018-10-17T04:29:01.464Z,26.80
2018-10-17T04:34:05.092Z,28.13
2018-10-17T04:39:10.416Z,26.80
2018-10-17T04:44:14.005Z,29.83
2018-10-17T04:49:17.684Z,24.87
2018-10-17T04:54:21.177Z,28.23
2018-10-17T04:59:25.102Z,27.30
2018-10-17T05:04:28.743Z,28.20
2018-10-17T05:09:32.355Z,30.37
2018-10-17T05:14:35.991Z,28.93
2018-10-17T05:19:39.587Z,33.00
2018-10-17T05:24:43.182Z,29.63
2018-10-17T05:29:46.824Z,26.90
2018-10-17T05:34:50.362Z,30.37
2018-10-17T05:39:54.125Z,31.43
2018-10-17T05:44:57.651Z,28.13
2018-10-17T05:50:01.200Z,33.50
2018-10-17T05:55:04.948Z,32.07
2018-10-17T06:00:10.266Z,28.23
2018-10-17T06:05:13.995Z,30.60
2018-10-17T06:10:17.630Z,38.47
2018-10-17T06:15:21.322Z,27.70
2018-10-17T06:20:24.874Z,27.87
2018-10-17T06:25:28.416Z,27.57
2018-10-17T06:30:31.994Z,29.13
2018-10-17T06:35:35.575Z,30.67
2018-10-17T06:40:39.184Z,27.27
2018-10-17T06:45:42.775Z,26.33
2018-10-17T06:50:46.378Z,26.27
2018-10-17T06:55:49.963Z,29.43
2018-10-17T07:00:53.612Z,29.37
2018-10-17T07:05:57.209Z,28.93
2018-10-17T07:11:00.795Z,24.50
2018-10-17T07:16:04.457Z,24.93
2018-10-17T07:21:08.370Z,26.93
2018-10-17T07:26:11.943Z,27.00
2018-10-17T07:31:15.760Z,27.33
2018-10-17T07:36:19.300Z,24.67
2018-10-17T07:41:22.874Z,26.57
2018-10-17T07:46:26.815Z,29.17
2018-10-17T07:51:30.420Z,28.83
2018-10-17T07:56:34.012Z,28.03
2018-10-17T08:01:37.681Z,27.40
2018-10-17T08:06:41.869Z,26.07
2018-10-17T08:11:45.462Z,27.13
2018-10-17T08:16:49.092Z,35.70
2018-10-17T08:21:52.866Z,28.60
2018-10-17T08:26:56.411Z,27.47
2018-10-17T08:32:00.003Z,27.23
2018-10-17T08:37:03.956Z,25.90
2018-10-17T08:42:07.618Z,22.50
2018-10-17T08:47:11.195Z,23.93
2018-10-17T08:52:14.844Z,25.37
2018-10-17T08:57:27.490Z,23.13
2018-10-17T09:02:31.100Z,20.63
2018-10-17T09:07:34.668Z,22.17
2018-10-17T09:12:38.235Z,21.10
2018-10-17T09:17:41.823Z,27.87
2018-10-17T09:22:45.478Z,18.93
2018-10-17T09:27:48.977Z,19.07
2018-10-17T09:32:52.558Z,17.40
2018-10-17T09:37:56.118Z,17.33
2018-10-17T09:42:59.688Z,17.37
2018-10-17T09:48:03.333Z,18.43
2018-10-17T09:53:06.977Z,17.50
2018-10-17T09:58:10.561Z,15.90
2018-10-17T10:03:14.192Z,18.57
2018-10-17T10:08:17.724Z,19.93
2018-10-17T10:13:21.363Z,16.07
2018-10-17T10:18:25.275Z,11.63
2018-10-17T10:23:28.894Z,11.53
2018-10-17T10:28:32.411Z,10.17
2018-10-17T10:33:36.689Z,10.23
2018-10-17T10:38:40.289Z,7.90
2018-10-17T10:43:43.846Z,6.83
2018-10-17T10:48:47.402Z,9.03
2018-10-17T10:53:50.958Z,8.70
2018-10-17T10:58:54.563Z,10.07
2018-10-17T11:03:58.119Z,8.23
2018-10-17T11:09:01.757Z,11.67
2018-10-17T11:14:06.051Z,10.87
2018-10-17T11:19:09.522Z,9.03
2018-10-17T11:24:13.062Z,10.07
2018-10-17T11:29:16.808Z,8.63
2018-10-17T11:34:20.361Z,9.13
2018-10-17T11:39:23.942Z,8.53
2018-10-17T11:44:27.498Z,9.10
2018-10-17T11:49:31.094Z,7.67
2018-10-17T11:54:34.708Z,9.30
2018-10-17T11:59:38.297Z,10.40
2018-10-17T12:04:42.046Z,7.67
2018-10-17T12:09:45.481Z,10.87
2018-10-17T12:14:49.236Z,9.23
2018-10-17T12:19:52.852Z,8.60
2018-10-17T12:24:56.379Z,7.70
2018-10-17T12:29:59.988Z,9.23
2018-10-17T12:35:03.581Z,13.27
2018-10-17T12:40:08.728Z,8.20
2018-10-17T12:45:12.244Z,12.77
2018-10-17T12:50:15.843Z,12.10
2018-10-17T12:55:19.422Z,9.23
2018-10-17T13:00:34.028Z,7.10
2018-10-17T13:05:37.609Z,8.60
2018-10-17T13:10:41.278Z,9.00
2018-10-17T13:15:44.823Z,10.00
2018-10-17T13:20:48.470Z,8.53
2018-10-17T13:25:51.986Z,8.13
2018-10-17T13:30:56.948Z,8.07
2018-10-17T13:36:00.781Z,9.63
2018-10-17T13:41:04.472Z,6.80
2018-10-17T13:46:08.466Z,7.23
2018-10-17T13:51:12.083Z,9.13
2018-10-17T13:56:15.692Z,10.90
2018-10-17T14:01:19.328Z,9.37
2018-10-17T14:06:22.935Z,11.07
2018-10-17T14:11:26.544Z,7.63
2018-10-17T14:16:30.158Z,8.23
2018-10-17T14:21:33.709Z,13.17
2018-10-17T14:26:37.271Z,9.97
2018-10-17T14:31:40.811Z,8.30
2018-10-17T14:36:44.378Z,7.20
2018-10-17T14:41:47.970Z,9.70
2018-10-17T14:46:51.658Z,8.63
2018-10-17T14:51:55.227Z,9.87
2018-10-17T14:56:58.828Z,8.40
2018-10-17T15:02:02.402Z,8.00
2018-10-17T15:07:06.230Z,12.77
2018-10-17T15:12:10.009Z,12.80
2018-10-17T15:17:13.604Z,10.13
2018-10-17T15:22:17.165Z,9.00
2018-10-17T15:27:20.754Z,11.20
2018-10-17T15:32:24.423Z,20.63
2018-10-17T15:37:33.023Z,11.90
2018-10-17T15:42:37.044Z,10.37
2018-10-17T15:47:40.827Z,12.90
2018-10-17T15:52:44.481Z,9.90
2018-10-17T15:57:48.055Z,11.80
2018-10-17T16:02:51.679Z,11.50
2018-10-17T16:07:55.265Z,12.97
2018-10-17T16:12:58.834Z,15.30
2018-10-17T16:18:02.468Z,10.97
2018-10-17T16:23:06.248Z,11.03
2018-10-17T16:28:09.923Z,11.70
2018-10-17T16:33:13.708Z,13.47
2018-10-17T16:38:17.320Z,13.37
2018-10-17T16:43:20.843Z,14.47
2018-10-17T16:48:24.667Z,11.63
2018-10-17T16:53:28.520Z,15.97
2018-10-17T16:58:32.114Z,16.03
2018-10-17T17:03:35.610Z,14.07
2018-10-17T17:08:39.168Z,18.73
2018-10-17T17:13:42.714Z,14.47
2018-10-17T17:18:46.661Z,14.43
2018-10-17T17:23:50.218Z,13.60
2018-10-17T17:28:54.074Z,15.90
2018-10-17T17:33:57.640Z,18.97
2018-10-17T17:39:01.183Z,19.03
2018-10-17T17:44:04.917Z,17.87
2018-10-17T17:49:08.474Z,25.97
2018-10-17T17:54:12.027Z,24.60
2018-10-17T17:59:15.598Z,21.30
2018-10-17T18:04:19.259Z,23.47
2018-10-17T18:09:22.761Z,26.03
2018-10-17T18:14:26.768Z,23.50
2018-10-17T18:19:30.252Z,28.13
2018-10-17T18:24:33.836Z,27.83
2018-10-17T18:29:37.351Z,27.27
2018-10-17T18:34:41.212Z,26.07
2018-10-17T18:39:44.936Z,27.40
2018-10-17T18:44:48.470Z,27.57
2018-10-17T18:49:52.359Z,26.20
2018-10-17T18:54:56.090Z,29.93
2018-10-17T18:59:59.647Z,32.80
2018-10-17T19:05:04.202Z,28.33
2018-10-17T19:10:07.754Z,30.33
2018-10-17T19:15:11.424Z,33.70
2018-10-17T19:20:15.053Z,29.70
2018-10-17T19:25:18.604Z,40.90
2018-10-17T19:30:26.499Z,49.50
2018-10-17T19:35:30.167Z,35.17
2018-10-17T19:40:33.751Z,50.13
2018-10-17T19:45:37.296Z,64.60
2018-10-17T19:50:40.895Z,51.80
2018-10-17T19:55:44.551Z,40.03
2018-10-17T20:00:48.436Z,34.87
2018-10-17T20:05:51.978Z,36.53
2018-10-17T20:10:55.507Z,43.43
2018-10-17T20:15:59.021Z,34.80
2018-10-17T20:21:02.586Z,36.37
2018-10-17T20:26:06.334Z,39.43
2018-10-17T20:31:09.933Z,40.53
2018-10-17T20:36:13.530Z,43.57
2018-10-17T20:41:17.085Z,42.03
2018-10-17T20:46:20.769Z,37.37
2018-10-17T20:51:24.314Z,45.00
2018-10-17T20:56:27.871Z,42.80
2018-10-17T21:01:31.490Z,40.73
2018-10-17T21:06:35.017Z,51.20
2018-10-17T21:11:38.589Z,48.53
2018-10-17T21:16:42.931Z,49.37
2018-10-17T21:21:46.420Z,59.23
2018-10-17T21:26:50.036Z,46.30
2018-10-17T21:31:53.676Z,52.53
2018-10-17T21:37:00.180Z,45.07
2018-10-17T21:42:03.771Z,49.47
2018-10-17T21:47:08.140Z,48.50
2018-10-17T21:52:20.201Z,44.10
2018-10-17T21:57:29.208Z,47.03
2018-10-17T22:02:35.659Z,51.97
2018-10-17T22:07:44.021Z,51.27
2018-10-17T22:12:50.990Z,53.10
2018-10-17T22:17:54.539Z,53.87
2018-10-17T22:22:58.099Z,52.83
2018-10-17T22:28:10.306Z,63.00
2018-10-17T22:33:13.862Z,52.83
2018-10-17T22:38:17.436Z,63.83
2018-10-17T22:43:20.916Z,55.37
2018-10-17T22:48:24.709Z,61.90
2018-10-17T22:53:28.274Z,64.23
2018-10-17T22:58:31.810Z,67.27
2018-10-17T23:03:35.402Z,67.40
2018-10-17T23:08:38.929Z,65.87
2018-10-17T23:13:42.396Z,68.53
2018-10-17T23:18:45.930Z,67.63
2018-10-17T23:23:49.489Z,65.23
2018-10-17T23:28:53.039Z,68.33
2018-10-17T23:33:56.613Z,68.50
2018-10-17T23:39:00.162Z,67.97
2018-10-17T23:44:03.702Z,70.50
2018-10-17T23:49:07.291Z,72.27
2018-10-17T23:54:10.912Z,72.33
2018-10-17T23:59:14.563Z,86.73
